sensor_id;sensor_type;location;lat;lon;timestamp;P1;durP1;ratioP1;P2;durP2;ratioP2
22287;SDS011;11312;51.464;6.968;2024-03-25T00:01:14;4.70;;;2.28;;
22287;SDS011;11312;51.464;6.968;2024-03-25T00:03:40;11.38;;;2.88;;
22287;SDS011;11312;51.464;6.968;2024-03-25T00:06:06;5.00;;;2.17;;
22287;SDS011;11312;51.464;6.968;2024-03-25T00:08:32;6.60;;;2.85;;
22287;SDS011;11312;51.464;6.968;2024-03-25T00:10:58;6.55;;;2.83;;
22287;SDS011;11312;51.464;6.968;2024-03-25T00:13:25;6.68;;;2.58;;
22287;SDS011;11312;51.464;6.968;2024-03-25T00:15:51;5.35;;;2.28;;
22287;SDS011;11312;51.464;6.968;2024-03-25T00:18:17;5.80;;;2.67;;
22287;SDS011;11312;51.464;6.968;2024-03-25T00:20:42;5.07;;;2.40;;
22287;SDS011;11312;51.464;6.968;2024-03-25T00:23:09;6.75;;;2.58;;
22287;SDS011;11312;51.464;6.968;2024-03-25T00:25:34;6.80;;;3.10;;
22287;SDS011;11312;51.464;6.968;2024-03-25T00:28:00;12.32;;;2.92;;
22287;SDS011;11312;51.464;6.968;2024-03-25T00:30:25;7.45;;;3.38;;
22287;SDS011;11312;51.464;6.968;2024-03-25T00:32:51;7.00;;;2.80;;
22287;SDS011;11312;51.464;6.968;2024-03-25T00:35:17;4.85;;;1.98;;
22287;SDS011;11312;51.464;6.968;2024-03-25T00:37:43;5.32;;;2.47;;
22287;SDS011;11312;51.464;6.968;2024-03-25T00:40:09;4.97;;;2.47;;
22287;SDS011;11312;51.464;6.968;2024-03-25T00:42:36;15.13;;;3.70;;
22287;SDS011;11312;51.464;6.968;2024-03-25T00:45:02;7.72;;;3.00;;
22287;SDS011;11312;51.464;6.968;2024-03-25T00:47:30;7.60;;;2.88;;
22287;SDS011;11312;51.464;6.968;2024-03-25T00:49:56;6.05;;;2.78;;
22287;SDS011;11312;51.464;6.968;2024-03-25T00:52:22;7.85;;;3.95;;
22287;SDS011;11312;51.464;6.968;2024-03-25T00:54:48;7.72;;;3.15;;
22287;SDS011;11312;51.464;6.968;2024-03-25T00:57:13;7.82;;;3.45;;
22287;SDS011;11312;51.464;6.968;2024-03-25T00:59:39;7.63;;;3.30;;
22287;SDS011;11312;51.464;6.968;2024-03-25T01:02:05;9.40;;;4.38;;
22287;SDS011;11312;51.464;6.968;2024-03-25T01:04:30;9.27;;;3.78;;
22287;SDS011;11312;51.464;6.968;2024-03-25T01:06:57;9.07;;;4.40;;
22287;SDS011;11312;51.464;6.968;2024-03-25T01:09:23;6.80;;;3.08;;
22287;SDS011;11312;51.464;6.968;2024-03-25T01:11:50;6.28;;;2.53;;
22287;SDS011;11312;51.464;6.968;2024-03-25T01:14:16;7.95;;;3.08;;
22287;SDS011;11312;51.464;6.968;2024-03-25T01:16:41;6.18;;;2.72;;
22287;SDS011;11312;51.464;6.968;2024-03-25T01:19:08;8.45;;;3.05;;
22287;SDS011;11312;51.464;6.968;2024-03-25T01:21:33;7.28;;;3.40;;
22287;SDS011;11312;51.464;6.968;2024-03-25T01:23:59;8.80;;;3.30;;
22287;SDS011;11312;51.464;6.968;2024-03-25T01:26:26;7.53;;;2.92;;
22287;SDS011;11312;51.464;6.968;2024-03-25T01:28:52;10.13;;;3.83;;
22287;SDS011;11312;51.464;6.968;2024-03-25T01:31:18;4.97;;;2.13;;
22287;SDS011;11312;51.464;6.968;2024-03-25T01:33:44;5.45;;;2.35;;
22287;SDS011;11312;51.464;6.968;2024-03-25T01:36:10;5.50;;;2.30;;
22287;SDS011;11312;51.464;6.968;2024-03-25T01:38:41;4.65;;;2.00;;
22287;SDS011;11312;51.464;6.968;2024-03-25T01:41:11;4.40;;;2.00;;
22287;SDS011;11312;51.464;6.968;2024-03-25T01:43:37;4.78;;;2.38;;
22287;SDS011;11312;51.464;6.968;2024-03-25T01:46:03;8.93;;;2.75;;
22287;SDS011;11312;51.464;6.968;2024-03-25T01:48:30;12.63;;;3.33;;
22287;SDS011;11312;51.464;6.968;2024-03-25T01:50:56;4.15;;;1.95;;
22287;SDS011;11312;51.464;6.968;2024-03-25T01:53:23;9.75;;;2.35;;
22287;SDS011;11312;51.464;6.968;2024-03-25T01:55:49;4.90;;;2.58;;
22287;SDS011;11312;51.464;6.968;2024-03-25T01:58:20;4.97;;;2.20;;
22287;SDS011;11312;51.464;6.968;2024-03-25T02:00:46;4.72;;;2.08;;
22287;SDS011;11312;51.464;6.968;2024-03-25T02:03:12;5.55;;;2.40;;
22287;SDS011;11312;51.464;6.968;2024-03-25T02:05:39;4.88;;;2.38;;
22287;SDS011;11312;51.464;6.968;2024-03-25T02:08:05;5.68;;;2.25;;
22287;SDS011;11312;51.464;6.968;2024-03-25T02:10:31;6.68;;;2.35;;
22287;SDS011;11312;51.464;6.968;2024-03-25T02:12:57;12.98;;;3.00;;
22287;SDS011;11312;51.464;6.968;2024-03-25T02:15:24;3.50;;;1.70;;
22287;SDS011;11312;51.464;6.968;2024-03-25T02:17:51;4.53;;;2.00;;
22287;SDS011;11312;51.464;6.968;2024-03-25T02:20:17;5.55;;;2.47;;
22287;SDS011;11312;51.464;6.968;2024-03-25T02:22:43;6.18;;;2.70;;
22287;SDS011;11312;51.464;6.968;2024-03-25T02:25:09;4.80;;;2.00;;
22287;SDS011;11312;51.464;6.968;2024-03-25T02:27:38;4.60;;;2.00;;
22287;SDS011;11312;51.464;6.968;2024-03-25T02:30:10;4.07;;;1.85;;
22287;SDS011;11312;51.464;6.968;2024-03-25T02:32:40;4.22;;;1.85;;
22287;SDS011;11312;51.464;6.968;2024-03-25T02:35:11;5.28;;;2.13;;
22287;SDS011;11312;51.464;6.968;2024-03-25T02:37:39;5.88;;;2.53;;
22287;SDS011;11312;51.464;6.968;2024-03-25T02:40:07;5.40;;;2.38;;
22287;SDS011;11312;51.464;6.968;2024-03-25T02:42:35;17.27;;;4.15;;
22287;SDS011;11312;51.464;6.968;2024-03-25T02:45:02;7.20;;;3.08;;
22287;SDS011;11312;51.464;6.968;2024-03-25T02:47:28;6.63;;;2.72;;
22287;SDS011;11312;51.464;6.968;2024-03-25T02:49:54;8.60;;;3.25;;
22287;SDS011;11312;51.464;6.968;2024-03-25T02:52:19;13.32;;;2.78;;
22287;SDS011;11312;51.464;6.968;2024-03-25T02:54:46;6.35;;;2.88;;
22287;SDS011;11312;51.464;6.968;2024-03-25T02:57:11;4.47;;;1.98;;
22287;SDS011;11312;51.464;6.968;2024-03-25T02:59:37;6.10;;;3.10;;
22287;SDS011;11312;51.464;6.968;2024-03-25T03:02:02;5.03;;;2.30;;
22287;SDS011;11312;51.464;6.968;2024-03-25T03:04:28;6.07;;;2.45;;
22287;SDS011;11312;51.464;6.968;2024-03-25T03:06:54;5.18;;;2.10;;
22287;SDS011;11312;51.464;6.968;2024-03-25T03:09:19;4.88;;;2.08;;
22287;SDS011;11312;51.464;6.968;2024-03-25T03:11:45;5.05;;;2.13;;
22287;SDS011;11312;51.464;6.968;2024-03-25T03:14:11;8.43;;;3.28;;
22287;SDS011;11312;51.464;6.968;2024-03-25T03:16:36;4.90;;;2.10;;
22287;SDS011;11312;51.464;6.968;2024-03-25T03:19:02;8.68;;;2.50;;
22287;SDS011;11312;51.464;6.968;2024-03-25T03:21:28;5.80;;;2.65;;
22287;SDS011;11312;51.464;6.968;2024-03-25T03:23:55;5.82;;;2.35;;
22287;SDS011;11312;51.464;6.968;2024-03-25T03:26:21;5.40;;;2.47;;
22287;SDS011;11312;51.464;6.968;2024-03-25T03:28:51;5.18;;;2.22;;
22287;SDS011;11312;51.464;6.968;2024-03-25T03:31:20;4.90;;;2.00;;
22287;SDS011;11312;51.464;6.968;2024-03-25T03:33:48;4.85;;;2.30;;
22287;SDS011;11312;51.464;6.968;2024-03-25T03:36:17;7.22;;;2.75;;
22287;SDS011;11312;51.464;6.968;2024-03-25T03:38:45;7.68;;;3.08;;
22287;SDS011;11312;51.464;6.968;2024-03-25T03:41:11;6.50;;;2.80;;
22287;SDS011;11312;51.464;6.968;2024-03-25T03:43:37;5.32;;;2.40;;
22287;SDS011;11312;51.464;6.968;2024-03-25T03:46:02;9.55;;;3.83;;
22287;SDS011;11312;51.464;6.968;2024-03-25T03:48:29;6.50;;;3.40;;
22287;SDS011;11312;51.464;6.968;2024-03-25T03:50:55;4.88;;;2.15;;
22287;SDS011;11312;51.464;6.968;2024-03-25T03:53:21;4.10;;;1.88;;
22287;SDS011;11312;51.464;6.968;2024-03-25T03:55:53;5.97;;;2.70;;
22287;SDS011;11312;51.464;6.968;2024-03-25T03:58:23;6.35;;;2.47;;
22287;SDS011;11312;51.464;6.968;2024-03-25T04:00:49;5.47;;;2.42;;
22287;SDS011;11312;51.464;6.968;2024-03-25T04:03:15;6.32;;;2.58;;
22287;SDS011;11312;51.464;6.968;2024-03-25T04:05:41;6.13;;;2.88;;
22287;SDS011;11312;51.464;6.968;2024-03-25T04:08:06;4.55;;;2.08;;
22287;SDS011;11312;51.464;6.968;2024-03-25T04:10:33;6.53;;;2.35;;
22287;SDS011;11312;51.464;6.968;2024-03-25T04:13:00;5.43;;;2.38;;
22287;SDS011;11312;51.464;6.968;2024-03-25T04:15:26;5.57;;;2.20;;
22287;SDS011;11312;51.464;6.968;2024-03-25T04:17:52;45.65;;;3.40;;
22287;SDS011;11312;51.464;6.968;2024-03-25T04:20:17;5.18;;;2.35;;
22287;SDS011;11312;51.464;6.968;2024-03-25T04:22:45;5.75;;;2.33;;
22287;SDS011;11312;51.464;6.968;2024-03-25T04:25:11;3.83;;;1.70;;
22287;SDS011;11312;51.464;6.968;2024-03-25T04:27:39;4.80;;;2.10;;
22287;SDS011;11312;51.464;6.968;2024-03-25T04:30:09;4.07;;;1.83;;
22287;SDS011;11312;51.464;6.968;2024-03-25T04:32:36;4.82;;;2.00;;
22287;SDS011;11312;51.464;6.968;2024-03-25T04:35:03;5.05;;;2.25;;
22287;SDS011;11312;51.464;6.968;2024-03-25T04:37:29;4.65;;;2.35;;
22287;SDS011;11312;51.464;6.968;2024-03-25T04:39:55;7.05;;;3.17;;
22287;SDS011;11312;51.464;6.968;2024-03-25T04:42:22;5.93;;;2.63;;
22287;SDS011;11312;51.464;6.968;2024-03-25T04:44:49;7.38;;;3.22;;
22287;SDS011;11312;51.464;6.968;2024-03-25T04:47:15;5.50;;;2.53;;
22287;SDS011;11312;51.464;6.968;2024-03-25T04:49:42;5.50;;;2.90;;
22287;SDS011;11312;51.464;6.968;2024-03-25T04:52:09;7.60;;;4.22;;
22287;SDS011;11312;51.464;6.968;2024-03-25T04:54:35;5.00;;;2.20;;
22287;SDS011;11312;51.464;6.968;2024-03-25T04:57:01;5.05;;;2.10;;
22287;SDS011;11312;51.464;6.968;2024-03-25T04:59:27;6.50;;;3.10;;
22287;SDS011;11312;51.464;6.968;2024-03-25T05:01:53;5.75;;;2.47;;
22287;SDS011;11312;51.464;6.968;2024-03-25T05:04:18;5.60;;;2.40;;
22287;SDS011;11312;51.464;6.968;2024-03-25T05:06:45;5.97;;;2.67;;
22287;SDS011;11312;51.464;6.968;2024-03-25T05:09:11;3.60;;;1.70;;
22287;SDS011;11312;51.464;6.968;2024-03-25T05:11:36;6.95;;;2.92;;
22287;SDS011;11312;51.464;6.968;2024-03-25T05:14:02;6.05;;;2.40;;
22287;SDS011;11312;51.464;6.968;2024-03-25T05:16:28;4.32;;;2.00;;
22287;SDS011;11312;51.464;6.968;2024-03-25T05:18:55;6.50;;;2.67;;
22287;SDS011;11312;51.464;6.968;2024-03-25T05:21:21;10.50;;;3.47;;
22287;SDS011;11312;51.464;6.968;2024-03-25T05:23:46;4.40;;;1.98;;
22287;SDS011;11312;51.464;6.968;2024-03-25T05:26:12;7.47;;;3.15;;
22287;SDS011;11312;51.464;6.968;2024-03-25T05:28:38;6.20;;;2.60;;
22287;SDS011;11312;51.464;6.968;2024-03-25T05:31:10;5.93;;;2.63;;
22287;SDS011;11312;51.464;6.968;2024-03-25T05:33:35;4.85;;;2.00;;
22287;SDS011;11312;51.464;6.968;2024-03-25T05:36:02;4.85;;;2.22;;
22287;SDS011;11312;51.464;6.968;2024-03-25T05:38:28;6.25;;;2.63;;
22287;SDS011;11312;51.464;6.968;2024-03-25T05:40:54;5.50;;;2.47;;
22287;SDS011;11312;51.464;6.968;2024-03-25T05:43:20;4.80;;;1.95;;
22287;SDS011;11312;51.464;6.968;2024-03-25T05:45:52;4.88;;;2.20;;
22287;SDS011;11312;51.464;6.968;2024-03-25T05:48:19;9.30;;;3.78;;
22287;SDS011;11312;51.464;6.968;2024-03-25T05:53:27;7.72;;;3.05;;
22287;SDS011;11312;51.464;6.968;2024-03-25T05:55:53;4.65;;;2.25;;
22287;SDS011;11312;51.464;6.968;2024-03-25T05:58:19;4.60;;;1.98;;
22287;SDS011;11312;51.464;6.968;2024-03-25T06:00:49;5.97;;;2.25;;
22287;SDS011;11312;51.464;6.968;2024-03-25T06:03:15;4.65;;;2.22;;
22287;SDS011;11312;51.464;6.968;2024-03-25T06:05:42;7.47;;;2.80;;
22287;SDS011;11312;51.464;6.968;2024-03-25T06:08:08;5.75;;;2.30;;
22287;SDS011;11312;51.464;6.968;2024-03-25T06:10:41;5.68;;;2.33;;
22287;SDS011;11312;51.464;6.968;2024-03-25T06:13:06;18.15;;;4.22;;
22287;SDS011;11312;51.464;6.968;2024-03-25T06:15:32;4.47;;;2.00;;
22287;SDS011;11312;51.464;6.968;2024-03-25T06:17:58;4.32;;;2.00;;
22287;SDS011;11312;51.464;6.968;2024-03-25T06:20:23;7.20;;;2.88;;
22287;SDS011;11312;51.464;6.968;2024-03-25T06:22:49;8.40;;;3.28;;
22287;SDS011;11312;51.464;6.968;2024-03-25T06:25:16;5.25;;;2.22;;
22287;SDS011;11312;51.464;6.968;2024-03-25T06:27:42;8.52;;;2.90;;
22287;SDS011;11312;51.464;6.968;2024-03-25T06:30:10;3.60;;;1.70;;
22287;SDS011;11312;51.464;6.968;2024-03-25T06:32:55;3.95;;;1.80;;
22287;SDS011;11312;51.464;6.968;2024-03-25T06:35:39;6.18;;;2.75;;
22287;SDS011;11312;51.464;6.968;2024-03-25T06:38:07;5.32;;;2.25;;
22287;SDS011;11312;51.464;6.968;2024-03-25T06:40:32;6.00;;;2.83;;
22287;SDS011;11312;51.464;6.968;2024-03-25T06:42:58;16.70;;;2.83;;
22287;SDS011;11312;51.464;6.968;2024-03-25T06:45:23;5.13;;;2.30;;
22287;SDS011;11312;51.464;6.968;2024-03-25T06:47:49;5.95;;;3.28;;
22287;SDS011;11312;51.464;6.968;2024-03-25T06:50:15;12.25;;;3.55;;
22287;SDS011;11312;51.464;6.968;2024-03-25T06:52:40;6.50;;;2.58;;
22287;SDS011;11312;51.464;6.968;2024-03-25T06:55:06;5.80;;;2.47;;
22287;SDS011;11312;51.464;6.968;2024-03-25T06:57:33;8.38;;;4.05;;
22287;SDS011;11312;51.464;6.968;2024-03-25T06:59:58;5.85;;;3.05;;
22287;SDS011;11312;51.464;6.968;2024-03-25T07:02:24;33.05;;;2.53;;
22287;SDS011;11312;51.464;6.968;2024-03-25T07:04:50;11.60;;;4.10;;
22287;SDS011;11312;51.464;6.968;2024-03-25T07:07:15;7.10;;;3.20;;
22287;SDS011;11312;51.464;6.968;2024-03-25T07:09:41;7.75;;;2.35;;
22287;SDS011;11312;51.464;6.968;2024-03-25T07:12:07;5.03;;;2.00;;
22287;SDS011;11312;51.464;6.968;2024-03-25T07:14:32;5.35;;;2.58;;
22287;SDS011;11312;51.464;6.968;2024-03-25T07:16:58;4.50;;;2.10;;
22287;SDS011;11312;51.464;6.968;2024-03-25T07:19:24;7.03;;;2.95;;
22287;SDS011;11312;51.464;6.968;2024-03-25T07:21:49;4.03;;;1.98;;
22287;SDS011;11312;51.464;6.968;2024-03-25T07:24:15;3.95;;;1.98;;
22287;SDS011;11312;51.464;6.968;2024-03-25T07:26:41;2.85;;;1.52;;
22287;SDS011;11312;51.464;6.968;2024-03-25T07:29:06;5.00;;;2.60;;
22287;SDS011;11312;51.464;6.968;2024-03-25T07:31:32;7.43;;;2.08;;
22287;SDS011;11312;51.464;6.968;2024-03-25T07:33:58;4.43;;;1.88;;
22287;SDS011;11312;51.464;6.968;2024-03-25T07:36:23;5.13;;;2.25;;
22287;SDS011;11312;51.464;6.968;2024-03-25T07:38:50;6.93;;;2.50;;
22287;SDS011;11312;51.464;6.968;2024-03-25T07:41:16;2.65;;;1.60;;
22287;SDS011;11312;51.464;6.968;2024-03-25T07:43:42;3.83;;;1.92;;
22287;SDS011;11312;51.464;6.968;2024-03-25T07:46:07;3.75;;;1.80;;
22287;SDS011;11312;51.464;6.968;2024-03-25T07:48:33;6.53;;;2.97;;
22287;SDS011;11312;51.464;6.968;2024-03-25T07:51:00;2.25;;;1.33;;
22287;SDS011;11312;51.464;6.968;2024-03-25T07:53:26;2.78;;;1.70;;
22287;SDS011;11312;51.464;6.968;2024-03-25T07:55:52;4.20;;;1.83;;
22287;SDS011;11312;51.464;6.968;2024-03-25T07:58:17;4.40;;;2.08;;
22287;SDS011;11312;51.464;6.968;2024-03-25T08:00:43;2.97;;;1.60;;
22287;SDS011;11312;51.464;6.968;2024-03-25T08:03:09;3.10;;;1.60;;
22287;SDS011;11312;51.464;6.968;2024-03-25T08:05:35;3.55;;;1.48;;
22287;SDS011;11312;51.464;6.968;2024-03-25T08:08:01;4.90;;;1.85;;
22287;SDS011;11312;51.464;6.968;2024-03-25T08:10:27;1.42;;;1.20;;
22287;SDS011;11312;51.464;6.968;2024-03-25T08:12:53;2.55;;;1.60;;
22287;SDS011;11312;51.464;6.968;2024-03-25T08:15:19;2.47;;;1.48;;
22287;SDS011;11312;51.464;6.968;2024-03-25T08:17:44;7.97;;;2.67;;
22287;SDS011;11312;51.464;6.968;2024-03-25T08:20:10;3.45;;;1.60;;
22287;SDS011;11312;51.464;6.968;2024-03-25T08:22:37;3.35;;;1.88;;
22287;SDS011;11312;51.464;6.968;2024-03-25T08:25:03;1.85;;;1.30;;
22287;SDS011;11312;51.464;6.968;2024-03-25T08:37:12;4.15;;;1.83;;
22287;SDS011;11312;51.464;6.968;2024-03-25T08:39:37;2.25;;;1.20;;
22287;SDS011;11312;51.464;6.968;2024-03-25T08:42:03;0.98;;;0.98;;
22287;SDS011;11312;51.464;6.968;2024-03-25T08:44:29;4.77;;;1.63;;
22287;SDS011;11312;51.464;6.968;2024-03-25T08:46:55;1.92;;;1.20;;
22287;SDS011;11312;51.464;6.968;2024-03-25T08:49:20;15.27;;;2.38;;
22287;SDS011;11312;51.464;6.968;2024-03-25T08:51:46;3.17;;;1.90;;
22287;SDS011;11312;51.464;6.968;2024-03-25T08:54:12;5.80;;;2.78;;
22287;SDS011;11312;51.464;6.968;2024-03-25T08:56:37;2.35;;;1.63;;
22287;SDS011;11312;51.464;6.968;2024-03-25T08:59:03;1.48;;;1.20;;
22287;SDS011;11312;51.464;6.968;2024-03-25T09:01:29;2.70;;;1.60;;
22287;SDS011;11312;51.464;6.968;2024-03-25T09:03:55;1.60;;;1.25;;
22287;SDS011;11312;51.464;6.968;2024-03-25T09:06:21;4.50;;;2.30;;
22287;SDS011;11312;51.464;6.968;2024-03-25T09:08:47;2.22;;;1.48;;
22287;SDS011;11312;51.464;6.968;2024-03-25T09:11:31;8.75;;;2.85;;
22287;SDS011;11312;51.464;6.968;2024-03-25T09:13:57;2.25;;;1.30;;
22287;SDS011;11312;51.464;6.968;2024-03-25T09:16:23;6.28;;;1.98;;
22287;SDS011;11312;51.464;6.968;2024-03-25T09:18:49;2.55;;;1.45;;
22287;SDS011;11312;51.464;6.968;2024-03-25T09:21:17;2.90;;;1.40;;
22287;SDS011;11312;51.464;6.968;2024-03-25T09:23:43;1.40;;;1.30;;
22287;SDS011;11312;51.464;6.968;2024-03-25T09:26:09;4.35;;;1.17;;
22287;SDS011;11312;51.464;6.968;2024-03-25T09:28:36;1.65;;;1.15;;
22287;SDS011;11312;51.464;6.968;2024-03-25T09:31:01;9.55;;;1.80;;
22287;SDS011;11312;51.464;6.968;2024-03-25T09:33:27;1.05;;;0.95;;
22287;SDS011;11312;51.464;6.968;2024-03-25T09:35:53;1.10;;;1.00;;
22287;SDS011;11312;51.464;6.968;2024-03-25T09:38:18;4.22;;;2.17;;
22287;SDS011;11312;51.464;6.968;2024-03-25T09:40:44;3.47;;;1.75;;
22287;SDS011;11312;51.464;6.968;2024-03-25T09:43:13;1.67;;;1.20;;
22287;SDS011;11312;51.464;6.968;2024-03-25T09:45:50;1.73;;;1.20;;
22287;SDS011;11312;51.464;6.968;2024-03-25T09:48:17;1.23;;;1.10;;
22287;SDS011;11312;51.464;6.968;2024-03-25T09:50:44;1.50;;;1.20;;
22287;SDS011;11312;51.464;6.968;2024-03-25T09:53:10;1.48;;;1.25;;
22287;SDS011;11312;51.464;6.968;2024-03-25T09:55:36;2.22;;;1.38;;
22287;SDS011;11312;51.464;6.968;2024-03-25T09:58:03;1.30;;;1.20;;
22287;SDS011;11312;51.464;6.968;2024-03-25T10:00:30;1.48;;;1.20;;
22287;SDS011;11312;51.464;6.968;2024-03-25T10:02:55;2.85;;;1.65;;
22287;SDS011;11312;51.464;6.968;2024-03-25T10:05:21;10.82;;;1.67;;
22287;SDS011;11312;51.464;6.968;2024-03-25T10:07:47;1.63;;;1.35;;
22287;SDS011;11312;51.464;6.968;2024-03-25T10:10:13;2.90;;;1.80;;
22287;SDS011;11312;51.464;6.968;2024-03-25T10:12:44;2.95;;;1.50;;
22287;SDS011;11312;51.464;6.968;2024-03-25T10:15:14;2.10;;;1.40;;
22287;SDS011;11312;51.464;6.968;2024-03-25T10:17:41;1.30;;;1.20;;
22287;SDS011;11312;51.464;6.968;2024-03-25T10:20:08;1.45;;;1.13;;
22287;SDS011;11312;51.464;6.968;2024-03-25T10:22:42;2.40;;;1.50;;
22287;SDS011;11312;51.464;6.968;2024-03-25T10:27:54;6.05;;;2.00;;
22287;SDS011;11312;51.464;6.968;2024-03-25T10:30:24;2.53;;;1.50;;
22287;SDS011;11312;51.464;6.968;2024-03-25T10:33:03;3.17;;;2.03;;
22287;SDS011;11312;51.464;6.968;2024-03-25T10:35:33;3.08;;;1.50;;
22287;SDS011;11312;51.464;6.968;2024-03-25T10:38:03;2.05;;;1.40;;
22287;SDS011;11312;51.464;6.968;2024-03-25T10:40:32;1.30;;;1.20;;
22287;SDS011;11312;51.464;6.968;2024-03-25T10:43:05;1.30;;;1.10;;
22287;SDS011;11312;51.464;6.968;2024-03-25T10:45:32;1.90;;;1.23;;
22287;SDS011;11312;51.464;6.968;2024-03-25T10:47:59;3.10;;;1.65;;
22287;SDS011;11312;51.464;6.968;2024-03-25T10:50:48;2.22;;;1.35;;
22287;SDS011;11312;51.464;6.968;2024-03-25T10:53:17;10.77;;;2.28;;
22287;SDS011;11312;51.464;6.968;2024-03-25T10:55:46;1.73;;;1.25;;
22287;SDS011;11312;51.464;6.968;2024-03-25T10:58:15;2.30;;;1.50;;
22287;SDS011;11312;51.464;6.968;2024-03-25T11:00:42;9.27;;;1.55;;
22287;SDS011;11312;51.464;6.968;2024-03-25T11:03:09;1.95;;;1.25;;
22287;SDS011;11312;51.464;6.968;2024-03-25T11:05:36;0.90;;;0.90;;
22287;SDS011;11312;51.464;6.968;2024-03-25T11:08:12;0.90;;;0.90;;
22287;SDS011;11312;51.464;6.968;2024-03-25T11:10:45;2.67;;;1.48;;
22287;SDS011;11312;51.464;6.968;2024-03-25T11:13:21;3.63;;;2.08;;
22287;SDS011;11312;51.464;6.968;2024-03-25T11:15:49;1.65;;;1.10;;
22287;SDS011;11312;51.464;6.968;2024-03-25T11:18:16;2.90;;;1.35;;
22287;SDS011;11312;51.464;6.968;2024-03-25T11:20:43;0.70;;;0.70;;
22287;SDS011;11312;51.464;6.968;2024-03-25T11:23:10;0.70;;;0.70;;
22287;SDS011;11312;51.464;6.968;2024-03-25T11:25:39;0.75;;;0.75;;
22287;SDS011;11312;51.464;6.968;2024-03-25T11:28:06;0.85;;;0.70;;
22287;SDS011;11312;51.464;6.968;2024-03-25T11:30:33;3.97;;;1.55;;
22287;SDS011;11312;51.464;6.968;2024-03-25T11:33:00;0.85;;;0.68;;
22287;SDS011;11312;51.464;6.968;2024-03-25T11:35:28;0.57;;;0.57;;
22287;SDS011;11312;51.464;6.968;2024-03-25T11:37:53;0.73;;;0.70;;
22287;SDS011;11312;51.464;6.968;2024-03-25T11:40:19;1.45;;;0.90;;
22287;SDS011;11312;51.464;6.968;2024-03-25T11:42:45;1.30;;;0.77;;
22287;SDS011;11312;51.464;6.968;2024-03-25T11:45:15;2.03;;;1.15;;
22287;SDS011;11312;51.464;6.968;2024-03-25T11:47:43;0.80;;;0.80;;
22287;SDS011;11312;51.464;6.968;2024-03-25T11:50:11;0.55;;;0.55;;
22287;SDS011;11312;51.464;6.968;2024-03-25T11:52:39;1.20;;;0.60;;
22287;SDS011;11312;51.464;6.968;2024-03-25T11:55:05;0.75;;;0.70;;
22287;SDS011;11312;51.464;6.968;2024-03-25T11:57:31;0.50;;;0.50;;
22287;SDS011;11312;51.464;6.968;2024-03-25T11:59:58;0.55;;;0.55;;
22287;SDS011;11312;51.464;6.968;2024-03-25T12:02:24;0.40;;;0.40;;
22287;SDS011;11312;51.464;6.968;2024-03-25T12:04:50;1.23;;;0.70;;
22287;SDS011;11312;51.464;6.968;2024-03-25T12:07:16;0.47;;;0.47;;
22287;SDS011;11312;51.464;6.968;2024-03-25T12:09:42;0.45;;;0.45;;
22287;SDS011;11312;51.464;6.968;2024-03-25T12:12:26;9.02;;;1.15;;
22287;SDS011;11312;51.464;6.968;2024-03-25T12:14:55;1.65;;;1.30;;
22287;SDS011;11312;51.464;6.968;2024-03-25T12:17:22;0.75;;;0.75;;
22287;SDS011;11312;51.464;6.968;2024-03-25T12:20:04;0.70;;;0.70;;
22287;SDS011;11312;51.464;6.968;2024-03-25T12:22:34;0.95;;;0.88;;
22287;SDS011;11312;51.464;6.968;2024-03-25T12:25:01;0.80;;;0.80;;
22287;SDS011;11312;51.464;6.968;2024-03-25T12:27:29;0.70;;;0.70;;
22287;SDS011;11312;51.464;6.968;2024-03-25T12:30:01;0.95;;;0.68;;
22287;SDS011;11312;51.464;6.968;2024-03-25T12:32:46;0.75;;;0.70;;
22287;SDS011;11312;51.464;6.968;2024-03-25T12:35:12;0.40;;;0.40;;
22287;SDS011;11312;51.464;6.968;2024-03-25T12:37:40;0.90;;;0.50;;
22287;SDS011;11312;51.464;6.968;2024-03-25T12:40:08;0.40;;;0.40;;
22287;SDS011;11312;51.464;6.968;2024-03-25T12:42:35;6.07;;;1.50;;
22287;SDS011;11312;51.464;6.968;2024-03-25T12:45:02;0.98;;;0.68;;
22287;SDS011;11312;51.464;6.968;2024-03-25T12:47:29;0.52;;;0.52;;
22287;SDS011;11312;51.464;6.968;2024-03-25T12:49:56;0.60;;;0.60;;
22287;SDS011;11312;51.464;6.968;2024-03-25T12:52:22;0.40;;;0.40;;
22287;SDS011;11312;51.464;6.968;2024-03-25T12:54:48;1.15;;;0.75;;
22287;SDS011;11312;51.464;6.968;2024-03-25T12:57:13;0.60;;;0.60;;
22287;SDS011;11312;51.464;6.968;2024-03-25T12:59:39;0.60;;;0.55;;
22287;SDS011;11312;51.464;6.968;2024-03-25T13:02:05;1.35;;;0.82;;
22287;SDS011;11312;51.464;6.968;2024-03-25T13:04:34;0.30;;;0.30;;
22287;SDS011;11312;51.464;6.968;2024-03-25T13:07:02;0.43;;;0.43;;
22287;SDS011;11312;51.464;6.968;2024-03-25T13:09:28;0.40;;;0.40;;
22287;SDS011;11312;51.464;6.968;2024-03-25T13:11:55;0.85;;;0.68;;
22287;SDS011;11312;51.464;6.968;2024-03-25T13:14:22;1.65;;;0.60;;
22287;SDS011;11312;51.464;6.968;2024-03-25T13:16:48;0.88;;;0.57;;
22287;SDS011;11312;51.464;6.968;2024-03-25T13:19:14;0.50;;;0.50;;
22287;SDS011;11312;51.464;6.968;2024-03-25T13:21:39;0.85;;;0.75;;
22287;SDS011;11312;51.464;6.968;2024-03-25T13:24:06;1.38;;;0.95;;
22287;SDS011;11312;51.464;6.968;2024-03-25T13:26:32;0.70;;;0.70;;
22287;SDS011;11312;51.464;6.968;2024-03-25T13:28:57;0.50;;;0.50;;
22287;SDS011;11312;51.464;6.968;2024-03-25T13:31:23;1.30;;;0.90;;
22287;SDS011;11312;51.464;6.968;2024-03-25T13:33:49;1.38;;;0.90;;
22287;SDS011;11312;51.464;6.968;2024-03-25T13:36:16;0.70;;;0.70;;
22287;SDS011;11312;51.464;6.968;2024-03-25T13:38:42;0.88;;;0.88;;
22287;SDS011;11312;51.464;6.968;2024-03-25T13:41:08;0.90;;;0.90;;
22287;SDS011;11312;51.464;6.968;2024-03-25T13:43:34;0.68;;;0.68;;
22287;SDS011;11312;51.464;6.968;2024-03-25T13:45:59;4.30;;;1.63;;
22287;SDS011;11312;51.464;6.968;2024-03-25T13:48:25;0.52;;;0.52;;
22287;SDS011;11312;51.464;6.968;2024-03-25T13:50:54;0.63;;;0.63;;
22287;SDS011;11312;51.464;6.968;2024-03-25T13:53:19;1.55;;;1.08;;
22287;SDS011;11312;51.464;6.968;2024-03-25T13:55:46;0.60;;;0.60;;
22287;SDS011;11312;51.464;6.968;2024-03-25T13:58:12;0.70;;;0.70;;
22287;SDS011;11312;51.464;6.968;2024-03-25T14:00:38;0.73;;;0.73;;
22287;SDS011;11312;51.464;6.968;2024-03-25T14:03:04;0.90;;;0.90;;
22287;SDS011;11312;51.464;6.968;2024-03-25T14:05:30;1.02;;;0.75;;
22287;SDS011;11312;51.464;6.968;2024-03-25T14:07:55;1.45;;;0.95;;
22287;SDS011;11312;51.464;6.968;2024-03-25T14:10:21;0.70;;;0.70;;
22287;SDS011;11312;51.464;6.968;2024-03-25T14:12:47;0.95;;;0.90;;
22287;SDS011;11312;51.464;6.968;2024-03-25T14:20:04;0.90;;;0.80;;
22287;SDS011;11312;51.464;6.968;2024-03-25T14:22:32;0.65;;;0.65;;
22287;SDS011;11312;51.464;6.968;2024-03-25T14:24:58;1.42;;;1.00;;
22287;SDS011;11312;51.464;6.968;2024-03-25T14:29:50;4.35;;;1.10;;
22287;SDS011;11312;51.464;6.968;2024-03-25T14:32:18;3.17;;;1.23;;
22287;SDS011;11312;51.464;6.968;2024-03-25T14:34:44;0.80;;;0.70;;
22287;SDS011;11312;51.464;6.968;2024-03-25T14:42:01;1.02;;;0.93;;
22287;SDS011;11312;51.464;6.968;2024-03-25T14:44:28;1.45;;;1.05;;
22287;SDS011;11312;51.464;6.968;2024-03-25T14:46:54;1.88;;;1.20;;
22287;SDS011;11312;51.464;6.968;2024-03-25T14:49:20;0.80;;;0.80;;
22287;SDS011;11312;51.464;6.968;2024-03-25T14:51:46;1.75;;;1.30;;
22287;SDS011;11312;51.464;6.968;2024-03-25T14:54:11;4.78;;;2.65;;
22287;SDS011;11312;51.464;6.968;2024-03-25T14:56:37;1.05;;;0.98;;
22287;SDS011;11312;51.464;6.968;2024-03-25T14:59:02;10.93;;;1.95;;
22287;SDS011;11312;51.464;6.968;2024-03-25T15:01:28;2.05;;;1.40;;
22287;SDS011;11312;51.464;6.968;2024-03-25T15:03:56;1.42;;;1.10;;
22287;SDS011;11312;51.464;6.968;2024-03-25T15:06:22;1.10;;;1.00;;
22287;SDS011;11312;51.464;6.968;2024-03-25T15:08:47;1.60;;;1.20;;
22287;SDS011;11312;51.464;6.968;2024-03-25T15:11:14;2.60;;;1.52;;
22287;SDS011;11312;51.464;6.968;2024-03-25T15:13:40;3.65;;;1.88;;